sensor_id;sensor_type;location;lat;lon;timestamp;P1;durP1;ratioP1;P2;durP2;ratioP2
7213;SDS011;3648;50.614;13.830;2023-04-07T00:02:04;9.13;;;6.57;;
7213;SDS011;3648;50.614;13.830;2023-04-07T00:04:31;8.73;;;7.20;;
7213;SDS011;3648;50.614;13.830;2023-04-07T00:06:58;8.07;;;6.97;;
7213;SDS011;3648;50.614;13.830;2023-04-07T00:09:25;9.50;;;6.97;;
7213;SDS011;3648;50.614;13.830;2023-04-07T00:11:52;8.93;;;7.03;;
7213;SDS011;3648;50.614;13.830;2023-04-07T00:14:20;9.30;;;7.37;;
7213;SDS011;3648;50.614;13.830;2023-04-07T00:16:47;8.83;;;7.33;;
7213;SDS011;3648;50.614;13.830;2023-04-07T00:19:15;10.17;;;7.67;;
7213;SDS011;3648;50.614;13.830;2023-04-07T00:21:42;9.40;;;7.03;;
7213;SDS011;3648;50.614;13.830;2023-04-07T00:24:09;9.90;;;6.47;;
7213;SDS011;3648;50.614;13.830;2023-04-07T00:26:36;7.20;;;6.20;;
7213;SDS011;3648;50.614;13.830;2023-04-07T00:29:03;8.03;;;6.37;;
7213;SDS011;3648;50.614;13.830;2023-04-07T00:31:30;8.30;;;6.20;;
7213;SDS011;3648;50.614;13.830;2023-04-07T00:33:57;7.43;;;6.23;;
7213;SDS011;3648;50.614;13.830;2023-04-07T00:36:25;7.13;;;5.53;;
7213;SDS011;3648;50.614;13.830;2023-04-07T00:38:53;7.17;;;5.67;;
7213;SDS011;3648;50.614;13.830;2023-04-07T00:41:20;7.20;;;5.77;;
7213;SDS011;3648;50.614;13.830;2023-04-07T00:43:48;6.63;;;5.73;;
7213;SDS011;3648;50.614;13.830;2023-04-07T00:46:15;7.97;;;6.10;;
7213;SDS011;3648;50.614;13.830;2023-04-07T00:48:43;8.57;;;6.33;;
7213;SDS011;3648;50.614;13.830;2023-04-07T00:51:10;8.57;;;6.70;;
7213;SDS011;3648;50.614;13.830;2023-04-07T00:53:39;9.60;;;7.03;;
7213;SDS011;3648;50.614;13.830;2023-04-07T00:56:07;8.90;;;6.50;;
7213;SDS011;3648;50.614;13.830;2023-04-07T00:58:34;10.63;;;6.87;;
7213;SDS011;3648;50.614;13.830;2023-04-07T01:01:03;9.63;;;6.63;;
7213;SDS011;3648;50.614;13.830;2023-04-07T01:03:34;9.03;;;7.13;;
7213;SDS011;3648;50.614;13.830;2023-04-07T01:06:06;9.17;;;6.83;;
7213;SDS011;3648;50.614;13.830;2023-04-07T01:08:37;10.53;;;7.73;;
7213;SDS011;3648;50.614;13.830;2023-04-07T01:11:23;10.20;;;6.37;;
7213;SDS011;3648;50.614;13.830;2023-04-07T01:13:53;9.07;;;6.00;;
7213;SDS011;3648;50.614;13.830;2023-04-07T01:16:23;7.90;;;6.37;;
7213;SDS011;3648;50.614;13.830;2023-04-07T01:18:53;11.03;;;7.20;;
7213;SDS011;3648;50.614;13.830;2023-04-07T01:21:24;9.57;;;6.20;;
7213;SDS011;3648;50.614;13.830;2023-04-07T01:24:20;10.00;;;7.53;;
7213;SDS011;3648;50.614;13.830;2023-04-07T01:27:13;9.57;;;6.97;;
7213;SDS011;3648;50.614;13.830;2023-04-07T01:29:48;9.20;;;6.63;;
7213;SDS011;3648;50.614;13.830;2023-04-07T01:32:17;9.13;;;6.57;;
7213;SDS011;3648;50.614;13.830;2023-04-07T01:34:46;8.13;;;6.87;;
7213;SDS011;3648;50.614;13.830;2023-04-07T01:37:15;9.93;;;8.00;;
7213;SDS011;3648;50.614;13.830;2023-04-07T01:39:43;9.23;;;7.40;;
7213;SDS011;3648;50.614;13.830;2023-04-07T01:42:10;9.07;;;7.03;;
7213;SDS011;3648;50.614;13.830;2023-04-07T01:44:38;10.07;;;7.73;;
7213;SDS011;3648;50.614;13.830;2023-04-07T01:47:07;9.70;;;7.43;;
7213;SDS011;3648;50.614;13.830;2023-04-07T01:49:35;9.27;;;7.13;;
7213;SDS011;3648;50.614;13.830;2023-04-07T01:52:03;12.40;;;8.37;;
7213;SDS011;3648;50.614;13.830;2023-04-07T01:54:31;9.83;;;7.47;;
7213;SDS011;3648;50.614;13.830;2023-04-07T01:56:59;10.57;;;8.63;;
7213;SDS011;3648;50.614;13.830;2023-04-07T01:59:26;11.43;;;7.73;;
7213;SDS011;3648;50.614;13.830;2023-04-07T02:01:53;9.50;;;7.60;;
7213;SDS011;3648;50.614;13.830;2023-04-07T02:04:23;10.30;;;8.17;;
7213;SDS011;3648;50.614;13.830;2023-04-07T02:06:55;10.83;;;8.20;;
7213;SDS011;3648;50.614;13.830;2023-04-07T02:09:27;11.07;;;8.10;;
7213;SDS011;3648;50.614;13.830;2023-04-07T02:11:57;9.93;;;7.97;;
7213;SDS011;3648;50.614;13.830;2023-04-07T02:14:27;11.00;;;8.10;;
7213;SDS011;3648;50.614;13.830;2023-04-07T02:16:54;10.20;;;8.13;;
7213;SDS011;3648;50.614;13.830;2023-04-07T02:19:23;10.03;;;7.90;;
7213;SDS011;3648;50.614;13.830;2023-04-07T02:21:51;10.07;;;7.57;;
7213;SDS011;3648;50.614;13.830;2023-04-07T02:24:19;10.70;;;9.13;;
7213;SDS011;3648;50.614;13.830;2023-04-07T02:26:46;10.43;;;8.27;;
7213;SDS011;3648;50.614;13.830;2023-04-07T02:29:13;11.60;;;8.50;;
7213;SDS011;3648;50.614;13.830;2023-04-07T02:31:40;11.50;;;8.23;;
7213;SDS011;3648;50.614;13.830;2023-04-07T02:34:07;10.30;;;7.97;;
7213;SDS011;3648;50.614;13.830;2023-04-07T02:36:35;13.30;;;9.43;;
7213;SDS011;3648;50.614;13.830;2023-04-07T02:39:02;13.10;;;9.10;;
7213;SDS011;3648;50.614;13.830;2023-04-07T02:41:29;11.50;;;8.40;;
7213;SDS011;3648;50.614;13.830;2023-04-07T02:43:56;11.97;;;8.67;;
7213;SDS011;3648;50.614;13.830;2023-04-07T02:46:23;10.67;;;8.80;;
7213;SDS011;3648;50.614;13.830;2023-04-07T02:48:50;8.83;;;7.87;;
7213;SDS011;3648;50.614;13.830;2023-04-07T02:51:17;12.27;;;8.83;;
7213;SDS011;3648;50.614;13.830;2023-04-07T02:53:45;11.80;;;8.50;;
7213;SDS011;3648;50.614;13.830;2023-04-07T02:56:12;10.47;;;8.23;;
7213;SDS011;3648;50.614;13.830;2023-04-07T02:58:40;9.10;;;8.07;;
7213;SDS011;3648;50.614;13.830;2023-04-07T03:01:07;10.90;;;8.03;;
7213;SDS011;3648;50.614;13.830;2023-04-07T03:03:34;11.87;;;8.20;;
7213;SDS011;3648;50.614;13.830;2023-04-07T03:06:01;10.77;;;8.20;;
7213;SDS011;3648;50.614;13.830;2023-04-07T03:08:27;11.03;;;9.17;;
7213;SDS011;3648;50.614;13.830;2023-04-07T03:10:56;11.20;;;7.70;;
7213;SDS011;3648;50.614;13.830;2023-04-07T03:13:22;10.37;;;7.67;;
7213;SDS011;3648;50.614;13.830;2023-04-07T03:15:49;10.37;;;7.97;;
7213;SDS011;3648;50.614;13.830;2023-04-07T03:18:16;11.93;;;8.20;;
7213;SDS011;3648;50.614;13.830;2023-04-07T03:20:43;15.67;;;11.93;;
7213;SDS011;3648;50.614;13.830;2023-04-07T03:23:11;15.10;;;11.20;;
7213;SDS011;3648;50.614;13.830;2023-04-07T03:25:38;10.60;;;8.83;;
7213;SDS011;3648;50.614;13.830;2023-04-07T03:28:07;13.23;;;9.60;;
7213;SDS011;3648;50.614;13.830;2023-04-07T03:30:34;11.80;;;10.07;;
7213;SDS011;3648;50.614;13.830;2023-04-07T03:33:01;12.63;;;9.63;;
7213;SDS011;3648;50.614;13.830;2023-04-07T03:35:27;14.90;;;10.07;;
7213;SDS011;3648;50.614;13.830;2023-04-07T03:37:54;12.13;;;9.43;;
7213;SDS011;3648;50.614;13.830;2023-04-07T03:40:21;11.53;;;8.47;;
7213;SDS011;3648;50.614;13.830;2023-04-07T03:42:48;10.80;;;8.73;;
7213;SDS011;3648;50.614;13.830;2023-04-07T03:45:17;12.90;;;8.83;;
7213;SDS011;3648;50.614;13.830;2023-04-07T03:47:44;9.57;;;8.47;;
7213;SDS011;3648;50.614;13.830;2023-04-07T03:50:11;11.00;;;7.97;;
7213;SDS011;3648;50.614;13.830;2023-04-07T03:52:38;10.83;;;8.67;;
7213;SDS011;3648;50.614;13.830;2023-04-07T03:55:05;11.40;;;8.23;;
7213;SDS011;3648;50.614;13.830;2023-04-07T03:57:33;11.20;;;8.13;;
7213;SDS011;3648;50.614;13.830;2023-04-07T04:00:00;12.53;;;8.77;;
7213;SDS011;3648;50.614;13.830;2023-04-07T04:02:28;11.23;;;8.80;;
7213;SDS011;3648;50.614;13.830;2023-04-07T04:04:55;11.57;;;7.87;;
7213;SDS011;3648;50.614;13.830;2023-04-07T04:07:23;10.67;;;8.40;;
7213;SDS011;3648;50.614;13.830;2023-04-07T04:09:51;13.67;;;8.50;;
7213;SDS011;3648;50.614;13.830;2023-04-07T04:12:17;11.10;;;8.60;;
7213;SDS011;3648;50.614;13.830;2023-04-07T04:14:45;13.30;;;9.13;;
7213;SDS011;3648;50.614;13.830;2023-04-07T04:17:12;11.57;;;8.73;;
7213;SDS011;3648;50.614;13.830;2023-04-07T04:19:40;13.03;;;8.97;;
7213;SDS011;3648;50.614;13.830;2023-04-07T04:22:07;10.60;;;8.97;;
7213;SDS011;3648;50.614;13.830;2023-04-07T04:24:34;12.70;;;8.67;;
7213;SDS011;3648;50.614;13.830;2023-04-07T04:27:01;10.47;;;9.03;;
7213;SDS011;3648;50.614;13.830;2023-04-07T04:29:27;10.73;;;9.20;;
7213;SDS011;3648;50.614;13.830;2023-04-07T04:31:54;10.87;;;8.83;;
7213;SDS011;3648;50.614;13.830;2023-04-07T04:34:21;12.50;;;8.70;;
7213;SDS011;3648;50.614;13.830;2023-04-07T04:36:50;11.47;;;8.87;;
7213;SDS011;3648;50.614;13.830;2023-04-07T04:39:17;15.20;;;9.70;;
7213;SDS011;3648;50.614;13.830;2023-04-07T04:41:44;13.33;;;9.60;;
7213;SDS011;3648;50.614;13.830;2023-04-07T04:44:11;10.67;;;8.80;;
7213;SDS011;3648;50.614;13.830;2023-04-07T04:46:38;12.87;;;8.77;;
7213;SDS011;3648;50.614;13.830;2023-04-07T04:49:05;13.87;;;9.23;;
7213;SDS011;3648;50.614;13.830;2023-04-07T04:51:32;10.17;;;9.00;;
7213;SDS011;3648;50.614;13.830;2023-04-07T04:54:00;10.77;;;8.73;;
7213;SDS011;3648;50.614;13.830;2023-04-07T04:56:28;13.10;;;10.37;;
7213;SDS011;3648;50.614;13.830;2023-04-07T04:58:54;10.27;;;8.23;;
7213;SDS011;3648;50.614;13.830;2023-04-07T05:01:21;13.60;;;9.40;;
7213;SDS011;3648;50.614;13.830;2023-04-07T05:03:48;11.87;;;8.87;;
7213;SDS011;3648;50.614;13.830;2023-04-07T05:06:15;11.13;;;8.77;;
7213;SDS011;3648;50.614;13.830;2023-04-07T05:08:42;12.40;;;9.77;;
7213;SDS011;3648;50.614;13.830;2023-04-07T05:11:11;13.80;;;10.93;;
7213;SDS011;3648;50.614;13.830;2023-04-07T05:13:38;14.13;;;10.73;;
7213;SDS011;3648;50.614;13.830;2023-04-07T05:16:05;13.07;;;10.30;;
7213;SDS011;3648;50.614;13.830;2023-04-07T05:18:32;13.80;;;10.57;;
7213;SDS011;3648;50.614;13.830;2023-04-07T05:20:59;14.50;;;10.10;;
7213;SDS011;3648;50.614;13.830;2023-04-07T05:23:27;13.53;;;11.10;;
7213;SDS011;3648;50.614;13.830;2023-04-07T05:25:54;14.87;;;10.70;;
7213;SDS011;3648;50.614;13.830;2023-04-07T05:28:22;12.37;;;10.73;;
7213;SDS011;3648;50.614;13.830;2023-04-07T05:30:49;14.57;;;10.67;;
7213;SDS011;3648;50.614;13.830;2023-04-07T05:33:16;12.40;;;9.93;;
7213;SDS011;3648;50.614;13.830;2023-04-07T05:35:43;11.73;;;9.97;;
7213;SDS011;3648;50.614;13.830;2023-04-07T05:38:10;12.20;;;10.57;;
7213;SDS011;3648;50.614;13.830;2023-04-07T05:40:38;13.77;;;10.47;;
7213;SDS011;3648;50.614;13.830;2023-04-07T05:43:05;12.77;;;10.60;;
7213;SDS011;3648;50.614;13.830;2023-04-07T05:45:33;13.03;;;11.10;;
7213;SDS011;3648;50.614;13.830;2023-04-07T05:48:00;15.70;;;11.03;;
7213;SDS011;3648;50.614;13.830;2023-04-07T05:50:27;13.53;;;11.27;;
7213;SDS011;3648;50.614;13.830;2023-04-07T05:52:54;13.77;;;10.40;;
7213;SDS011;3648;50.614;13.830;2023-04-07T05:55:21;12.40;;;10.83;;
7213;SDS011;3648;50.614;13.830;2023-04-07T05:57:48;13.27;;;10.77;;
7213;SDS011;3648;50.614;13.830;2023-04-07T06:00:15;13.57;;;11.17;;
7213;SDS011;3648;50.614;13.830;2023-04-07T06:02:44;14.40;;;11.10;;
7213;SDS011;3648;50.614;13.830;2023-04-07T06:05:11;14.50;;;11.60;;
7213;SDS011;3648;50.614;13.830;2023-04-07T06:07:39;16.23;;;11.40;;
7213;SDS011;3648;50.614;13.830;2023-04-07T06:10:06;13.10;;;11.73;;
7213;SDS011;3648;50.614;13.830;2023-04-07T06:12:34;14.77;;;10.83;;
7213;SDS011;3648;50.614;13.830;2023-04-07T06:15:01;13.40;;;10.63;;
7213;SDS011;3648;50.614;13.830;2023-04-07T06:17:28;11.70;;;10.10;;
7213;SDS011;3648;50.614;13.830;2023-04-07T06:19:56;13.30;;;11.33;;
7213;SDS011;3648;50.614;13.830;2023-04-07T06:22:23;13.90;;;10.97;;
7213;SDS011;3648;50.614;13.830;2023-04-07T06:24:50;11.23;;;10.03;;
7213;SDS011;3648;50.614;13.830;2023-04-07T06:27:18;12.97;;;10.03;;
7213;SDS011;3648;50.614;13.830;2023-04-07T06:29:46;13.80;;;10.50;;
7213;SDS011;3648;50.614;13.830;2023-04-07T06:32:13;12.67;;;9.83;;
7213;SDS011;3648;50.614;13.830;2023-04-07T06:34:41;11.20;;;9.50;;
7213;SDS011;3648;50.614;13.830;2023-04-07T06:37:09;11.97;;;9.77;;
7213;SDS011;3648;50.614;13.830;2023-04-07T06:39:37;11.70;;;10.00;;
7213;SDS011;3648;50.614;13.830;2023-04-07T06:42:04;13.07;;;9.43;;
7213;SDS011;3648;50.614;13.830;2023-04-07T06:44:31;10.80;;;9.60;;
7213;SDS011;3648;50.614;13.830;2023-04-07T06:46:58;11.83;;;10.40;;
7213;SDS011;3648;50.614;13.830;2023-04-07T06:49:25;10.90;;;9.80;;
7213;SDS011;3648;50.614;13.830;2023-04-07T06:51:52;11.90;;;10.70;;
7213;SDS011;3648;50.614;13.830;2023-04-07T06:54:21;11.30;;;10.13;;
7213;SDS011;3648;50.614;13.830;2023-04-07T06:56:47;11.87;;;10.67;;
7213;SDS011;3648;50.614;13.830;2023-04-07T06:59:15;12.37;;;10.23;;
7213;SDS011;3648;50.614;13.830;2023-04-07T07:01:42;13.43;;;10.47;;
7213;SDS011;3648;50.614;13.830;2023-04-07T07:04:10;14.30;;;10.07;;
7213;SDS011;3648;50.614;13.830;2023-04-07T07:06:37;11.40;;;8.73;;
7213;SDS011;3648;50.614;13.830;2023-04-07T07:09:04;11.23;;;9.90;;
7213;SDS011;3648;50.614;13.830;2023-04-07T07:11:33;10.80;;;8.90;;
7213;SDS011;3648;50.614;13.830;2023-04-07T07:14:00;11.83;;;9.43;;
7213;SDS011;3648;50.614;13.830;2023-04-07T07:16:27;12.60;;;9.73;;
7213;SDS011;3648;50.614;13.830;2023-04-07T07:18:54;11.40;;;8.87;;
7213;SDS011;3648;50.614;13.830;2023-04-07T07:21:21;12.33;;;8.90;;
7213;SDS011;3648;50.614;13.830;2023-04-07T07:23:48;12.33;;;10.10;;
7213;SDS011;3648;50.614;13.830;2023-04-07T07:26:15;13.93;;;10.63;;
7213;SDS011;3648;50.614;13.830;2023-04-07T07:28:44;18.70;;;16.13;;
7213;SDS011;3648;50.614;13.830;2023-04-07T07:31:11;18.50;;;13.77;;
7213;SDS011;3648;50.614;13.830;2023-04-07T07:33:40;27.23;;;19.17;;
7213;SDS011;3648;50.614;13.830;2023-04-07T07:36:08;42.20;;;25.93;;
7213;SDS011;3648;50.614;13.830;2023-04-07T07:38:35;21.37;;;14.97;;
7213;SDS011;3648;50.614;13.830;2023-04-07T07:41:03;19.67;;;13.87;;
7213;SDS011;3648;50.614;13.830;2023-04-07T07:43:31;18.70;;;14.00;;
7213;SDS011;3648;50.614;13.830;2023-04-07T07:45:59;22.30;;;15.13;;
7213;SDS011;3648;50.614;13.830;2023-04-07T07:48:27;26.10;;;18.47;;
7213;SDS011;3648;50.614;13.830;2023-04-07T07:50:54;22.30;;;15.93;;
7213;SDS011;3648;50.614;13.830;2023-04-07T07:53:21;22.43;;;13.90;;
7213;SDS011;3648;50.614;13.830;2023-04-07T07:55:49;23.80;;;15.10;;
7213;SDS011;3648;50.614;13.830;2023-04-07T07:58:16;29.53;;;23.13;;
7213;SDS011;3648;50.614;13.830;2023-04-07T08:00:43;39.57;;;26.13;;
7213;SDS011;3648;50.614;13.830;2023-04-07T08:03:12;23.70;;;16.90;;
7213;SDS011;3648;50.614;13.830;2023-04-07T08:05:39;23.93;;;16.13;;
7213;SDS011;3648;50.614;13.830;2023-04-07T08:08:06;31.30;;;18.47;;
7213;SDS011;3648;50.614;13.830;2023-04-07T08:10:33;37.40;;;20.67;;
7213;SDS011;3648;50.614;13.830;2023-04-07T08:13:00;29.67;;;17.47;;
7213;SDS011;3648;50.614;13.830;2023-04-07T08:15:27;24.13;;;14.43;;
7213;SDS011;3648;50.614;13.830;2023-04-07T08:17:54;17.53;;;11.77;;
7213;SDS011;3648;50.614;13.830;2023-04-07T08:20:23;14.80;;;10.73;;
7213;SDS011;3648;50.614;13.830;2023-04-07T08:22:50;14.67;;;9.37;;
7213;SDS011;3648;50.614;13.830;2023-04-07T08:25:17;10.87;;;8.50;;
7213;SDS011;3648;50.614;13.830;2023-04-07T08:27:45;9.50;;;7.13;;
7213;SDS011;3648;50.614;13.830;2023-04-07T08:30:12;9.30;;;7.20;;
7213;SDS011;3648;50.614;13.830;2023-04-07T08:32:39;9.53;;;6.23;;
7213;SDS011;3648;50.614;13.830;2023-04-07T08:35:08;9.57;;;6.53;;
7213;SDS011;3648;50.614;13.830;2023-04-07T08:37:37;7.53;;;6.00;;
7213;SDS011;3648;50.614;13.830;2023-04-07T08:40:05;9.40;;;6.63;;
7213;SDS011;3648;50.614;13.830;2023-04-07T08:42:33;6.53;;;5.27;;
7213;SDS011;3648;50.614;13.830;2023-04-07T08:45:05;6.97;;;4.90;;
7213;SDS011;3648;50.614;13.830;2023-04-07T08:47:34;7.27;;;5.53;;
7213;SDS011;3648;50.614;13.830;2023-04-07T08:50:03;7.93;;;5.47;;
7213;SDS011;3648;50.614;13.830;2023-04-07T08:52:32;7.13;;;5.80;;
7213;SDS011;3648;50.614;13.830;2023-04-07T08:55:07;7.00;;;5.70;;
7213;SDS011;3648;50.614;13.830;2023-04-07T08:57:34;7.70;;;5.87;;
7213;SDS011;3648;50.614;13.830;2023-04-07T09:00:02;8.10;;;6.37;;
7213;SDS011;3648;50.614;13.830;2023-04-07T09:02:31;6.80;;;6.10;;
7213;SDS011;3648;50.614;13.830;2023-04-07T09:04:59;8.17;;;6.40;;
7213;SDS011;3648;50.614;13.830;2023-04-07T09:07:28;6.97;;;5.63;;
7213;SDS011;3648;50.614;13.830;2023-04-07T09:09:56;7.80;;;5.97;;
7213;SDS011;3648;50.614;13.830;2023-04-07T09:12:25;6.23;;;5.50;;
7213;SDS011;3648;50.614;13.830;2023-04-07T09:14:53;7.50;;;6.10;;
7213;SDS011;3648;50.614;13.830;2023-04-07T09:17:20;7.00;;;5.33;;
7213;SDS011;3648;50.614;13.830;2023-04-07T09:19:47;6.77;;;4.93;;
7213;SDS011;3648;50.614;13.830;2023-04-07T09:22:18;6.93;;;5.93;;
7213;SDS011;3648;50.614;13.830;2023-04-07T09:25:08;6.10;;;5.50;;
7213;SDS011;3648;50.614;13.830;2023-04-07T09:27:37;6.63;;;5.10;;
7213;SDS011;3648;50.614;13.830;2023-04-07T09:30:10;6.70;;;5.50;;
7213;SDS011;3648;50.614;13.830;2023-04-07T09:32:39;6.60;;;5.50;;
7213;SDS011;3648;50.614;13.830;2023-04-07T09:35:06;6.00;;;5.20;;
7213;SDS011;3648;50.614;13.830;2023-04-07T09:37:34;5.17;;;4.53;;
7213;SDS011;3648;50.614;13.830;2023-04-07T09:40:01;6.70;;;5.23;;
7213;SDS011;3648;50.614;13.830;2023-04-07T09:42:29;5.70;;;5.10;;
7213;SDS011;3648;50.614;13.830;2023-04-07T09:45:01;7.13;;;5.53;;
7213;SDS011;3648;50.614;13.830;2023-04-07T09:47:30;6.63;;;5.27;;
7213;SDS011;3648;50.614;13.830;2023-04-07T09:49:58;6.07;;;5.47;;
7213;SDS011;3648;50.614;13.830;2023-04-07T09:55:16;6.50;;;5.30;;
7213;SDS011;3648;50.614;13.830;2023-04-07T09:57:45;6.50;;;5.80;;
7213;SDS011;3648;50.614;13.830;2023-04-07T10:00:16;6.77;;;5.77;;
7213;SDS011;3648;50.614;13.830;2023-04-07T10:02:44;6.60;;;5.43;;
7213;SDS011;3648;50.614;13.830;2023-04-07T10:05:12;7.20;;;5.50;;
7213;SDS011;3648;50.614;13.830;2023-04-07T10:07:39;7.30;;;6.13;;
7213;SDS011;3648;50.614;13.830;2023-04-07T10:10:07;7.67;;;5.80;;
7213;SDS011;3648;50.614;13.830;2023-04-07T10:12:36;7.10;;;5.80;;
7213;SDS011;3648;50.614;13.830;2023-04-07T10:15:03;7.77;;;5.80;;
7213;SDS011;3648;50.614;13.830;2023-04-07T10:17:33;7.80;;;6.23;;
7213;SDS011;3648;50.614;13.830;2023-04-07T10:20:02;7.20;;;5.83;;
7213;SDS011;3648;50.614;13.830;2023-04-07T10:22:33;10.50;;;6.33;;
7213;SDS011;3648;50.614;13.830;2023-04-07T10:25:03;7.93;;;5.70;;
7213;SDS011;3648;50.614;13.830;2023-04-07T10:27:36;6.90;;;5.53;;
7213;SDS011;3648;50.614;13.830;2023-04-07T10:30:12;7.97;;;5.83;;
7213;SDS011;3648;50.614;13.830;2023-04-07T10:32:46;7.20;;;5.97;;
7213;SDS011;3648;50.614;13.830;2023-04-07T10:35:13;5.80;;;5.20;;
7213;SDS011;3648;50.614;13.830;2023-04-07T10:37:42;5.77;;;5.00;;
7213;SDS011;3648;50.614;13.830;2023-04-07T10:40:40;7.30;;;5.20;;
7213;SDS011;3648;50.614;13.830;2023-04-07T10:43:08;6.27;;;5.03;;
7213;SDS011;3648;50.614;13.830;2023-04-07T10:45:54;7.07;;;5.30;;
7213;SDS011;3648;50.614;13.830;2023-04-07T10:48:25;6.33;;;5.03;;
7213;SDS011;3648;50.614;13.830;2023-04-07T10:57:09;8.57;;;5.80;;
7213;SDS011;3648;50.614;13.830;2023-04-07T10:59:39;7.63;;;6.03;;
7213;SDS011;3648;50.614;13.830;2023-04-07T11:04:58;6.53;;;5.63;;
7213;SDS011;3648;50.614;13.830;2023-04-07T11:07:45;6.73;;;5.33;;
7213;SDS011;3648;50.614;13.830;2023-04-07T11:10:14;7.07;;;5.67;;
7213;SDS011;3648;50.614;13.830;2023-04-07T11:12:43;5.80;;;5.20;;
7213;SDS011;3648;50.614;13.830;2023-04-07T11:15:22;6.80;;;5.73;;
7213;SDS011;3648;50.614;13.830;2023-04-07T11:20:40;5.07;;;4.57;;
7213;SDS011;3648;50.614;13.830;2023-04-07T11:23:16;6.30;;;5.63;;
7213;SDS011;3648;50.614;13.830;2023-04-07T11:25:45;6.03;;;5.43;;
7213;SDS011;3648;50.614;13.830;2023-04-07T11:28:14;7.53;;;6.17;;
7213;SDS011;3648;50.614;13.830;2023-04-07T11:30:46;6.40;;;4.93;;
7213;SDS011;3648;50.614;13.830;2023-04-07T11:33:18;8.00;;;5.53;;
7213;SDS011;3648;50.614;13.830;2023-04-07T11:35:48;6.50;;;5.63;;
7213;SDS011;3648;50.614;13.830;2023-04-07T11:38:16;7.40;;;6.07;;
7213;SDS011;3648;50.614;13.830;2023-04-07T11:40:45;6.00;;;4.83;;
7213;SDS011;3648;50.614;13.830;2023-04-07T11:43:18;6.37;;;5.10;;
7213;SDS011;3648;50.614;13.830;2023-04-07T11:48:30;6.90;;;4.77;;
7213;SDS011;3648;50.614;13.830;2023-04-07T11:50:59;6.17;;;4.80;;
7213;SDS011;3648;50.614;13.830;2023-04-07T11:53:27;4.90;;;4.10;;
7213;SDS011;3648;50.614;13.830;2023-04-07T11:56:01;5.70;;;4.67;;
7213;SDS011;3648;50.614;13.830;2023-04-07T11:58:29;4.63;;;4.10;;
7213;SDS011;3648;50.614;13.830;2023-04-07T12:00:56;4.97;;;4.30;;
7213;SDS011;3648;50.614;13.830;2023-04-07T12:03:29;4.83;;;4.00;;
7213;SDS011;3648;50.614;13.830;2023-04-07T12:05:56;5.13;;;4.27;;
7213;SDS011;3648;50.614;13.830;2023-04-07T12:08:36;4.63;;;4.17;;
7213;SDS011;3648;50.614;13.830;2023-04-07T12:11:07;5.17;;;3.77;;
7213;SDS011;3648;50.614;13.830;2023-04-07T12:13:35;5.27;;;4.37;;
7213;SDS011;3648;50.614;13.830;2023-04-07T12:16:02;4.30;;;3.80;;
7213;SDS011;3648;50.614;13.830;2023-04-07T12:18:30;4.43;;;4.00;;
7213;SDS011;3648;50.614;13.830;2023-04-07T12:20:57;4.37;;;3.77;;
7213;SDS011;3648;50.614;13.830;2023-04-07T12:23:24;6.23;;;3.97;;
7213;SDS011;3648;50.614;13.830;2023-04-07T12:25:53;4.20;;;3.77;;
7213;SDS011;3648;50.614;13.830;2023-04-07T12:28:20;5.00;;;4.00;;
7213;SDS011;3648;50.614;13.830;2023-04-07T12:30:47;4.63;;;3.63;;
7213;SDS011;3648;50.614;13.830;2023-04-07T12:33:14;5.23;;;3.97;;
7213;SDS011;3648;50.614;13.830;2023-04-07T12:35:41;5.23;;;4.23;;
7213;SDS011;3648;50.614;13.830;2023-04-07T12:38:08;4.67;;;3.80;;
7213;SDS011;3648;50.614;13.830;2023-04-07T12:40:36;4.33;;;3.80;;
7213;SDS011;3648;50.614;13.830;2023-04-07T12:43:04;3.87;;;3.40;;
7213;SDS011;3648;50.614;13.830;2023-04-07T12:45:31;3.43;;;3.10;;
7213;SDS011;3648;50.614;13.830;2023-04-07T12:47:58;4.00;;;3.23;;
7213;SDS011;3648;50.614;13.830;2023-04-07T12:50:25;4.70;;;3.93;;
7213;SDS011;3648;50.614;13.830;2023-04-07T12:52:53;5.07;;;3.90;;
7213;SDS011;3648;50.614;13.830;2023-04-07T12:55:20;9.37;;;4.00;;
7213;SDS011;3648;50.614;13.830;2023-04-07T12:57:47;4.17;;;3.30;;
7213;SDS011;3648;50.614;13.830;2023-04-07T13:00:16;4.40;;;3.30;;
7213;SDS011;3648;50.614;13.830;2023-04-07T13:02:43;5.00;;;3.73;;
7213;SDS011;3648;50.614;13.830;2023-04-07T13:05:11;7.90;;;3.47;;
7213;SDS011;3648;50.614;13.830;2023-04-07T13:07:38;3.47;;;3.07;;
7213;SDS011;3648;50.614;13.830;2023-04-07T13:10:05;3.07;;;2.80;;
7213;SDS011;3648;50.614;13.830;2023-04-07T13:12:33;4.43;;;3.30;;
7213;SDS011;3648;50.614;13.830;2023-04-07T13:15:00;3.23;;;2.93;;
7213;SDS011;3648;50.614;13.830;2023-04-07T13:17:29;2.97;;;2.67;;
7213;SDS011;3648;50.614;13.830;2023-04-07T13:19:57;3.13;;;2.70;;
7213;SDS011;3648;50.614;13.830;2023-04-07T13:22:24;3.70;;;3.10;;
7213;SDS011;3648;50.614;13.830;2023-04-07T13:24:51;3.17;;;2.80;;
7213;SDS011;3648;50.614;13.830;2023-04-07T13:27:18;3.17;;;2.70;;
7213;SDS011;3648;50.614;13.830;2023-04-07T13:29:45;3.40;;;3.10;;
7213;SDS011;3648;50.614;13.830;2023-04-07T13:32:12;3.73;;;3.10;;
7213;SDS011;3648;50.614;13.830;2023-04-07T13:34:40;4.03;;;2.93;;
7213;SDS011;3648;50.614;13.830;2023-04-07T13:37:08;3.47;;;2.90;;
7213;SDS011;3648;50.614;13.830;2023-04-07T13:39:35;4.07;;;3.43;;
7213;SDS011;3648;50.614;13.830;2023-04-07T13:42:02;3.40;;;2.97;;
7213;SDS011;3648;50.614;13.830;2023-04-07T13:44:29;3.83;;;3.47;;
7213;SDS011;3648;50.614;13.830;2023-04-07T13:46:57;3.57;;;3.10;;
7213;SDS011;3648;50.614;13.830;2023-04-07T13:49:24;3.40;;;3.10;;
7213;SDS011;3648;50.614;13.830;2023-04-07T13:51:53;5.03;;;3.83;;
7213;SDS011;3648;50.614;13.830;2023-04-07T13:54:20;4.20;;;3.60;;
7213;SDS011;3648;50.614;13.830;2023-04-07T13:56:48;4.90;;;3.80;;
7213;SDS011;3648;50.614;13.830;2023-04-07T13:59:15;4.47;;;4.00;;
7213;SDS011;3648;50.614;13.830;2023-04-07T14:01:42;5.13;;;4.20;;
7213;SDS011;3648;50.614;13.830;2023-04-07T14:04:09;4.23;;;3.80;;
7213;SDS011;3648;50.614;13.830;2023-04-07T14:06:36;5.53;;;4.13;;
7213;SDS011;3648;50.614;13.830;2023-04-07T14:09:05;4.70;;;4.00;;
7213;SDS011;3648;50.614;13.830;2023-04-07T14:11:35;5.13;;;4.23;;
7213;SDS011;3648;50.614;13.830;2023-04-07T14:14:02;5.93;;;4.13;;
7213;SDS011;3648;50.614;13.830;2023-04-07T14:16:29;4.30;;;3.77;;
7213;SDS011;3648;50.614;13.830;2023-04-07T14:18:56;4.80;;;4.30;;
7213;SDS011;3648;50.614;13.830;2023-04-07T14:21:23;5.67;;;4.30;;
7213;SDS011;3648;50.614;13.830;2023-04-07T14:23:51;9.10;;;4.10;;
7213;SDS011;3648;50.614;13.830;2023-04-07T14:26:19;4.73;;;4.00;;
7213;SDS011;3648;50.614;13.830;2023-04-07T14:28:47;4.40;;;3.80;;
7213;SDS011;3648;50.614;13.830;2023-04-07T14:31:14;4.33;;;3.40;;
7213;SDS011;3648;50.614;13.830;2023-04-07T14:33:42;5.03;;;4.20;;
7213;SDS011;3648;50.614;13.830;2023-04-07T14:36:10;4.03;;;3.50;;
7213;SDS011;3648;50.614;13.830;2023-04-07T14:38:39;5.60;;;3.67;;
7213;SDS011;3648;50.614;13.830;2023-04-07T14:41:06;4.97;;;4.43;;
7213;SDS011;3648;50.614;13.830;2023-04-07T14:43:34;5.47;;;4.33;;
7213;SDS011;3648;50.614;13.830;2023-04-07T14:46:01;5.07;;;4.37;;
7213;SDS011;3648;50.614;13.830;2023-04-07T14:48:29;5.67;;;4.50;;
7213;SDS011;3648;50.614;13.830;2023-04-07T14:50:56;5.63;;;4.30;;
7213;SDS011;3648;50.614;13.830;2023-04-07T14:53:23;5.43;;;3.80;;
7213;SDS011;3648;50.614;13.830;2023-04-07T14:55:50;4.93;;;4.47;;
7213;SDS011;3648;50.614;13.830;2023-04-07T14:58:17;6.70;;;4.90;;
7213;SDS011;3648;50.614;13.830;2023-04-07T15:00:46;4.93;;;4.03;;
7213;SDS011;3648;50.614;13.830;2023-04-07T15:03:13;5.50;;;4.53;;
7213;SDS011;3648;50.614;13.830;2023-04-07T15:05:40;5.07;;;4.40;;
7213;SDS011;3648;50.614;13.830;2023-04-07T15:08:07;6.13;;;4.40;;
7213;SDS011;3648;50.614;13.830;2023-04-07T15:10:36;5.80;;;5.03;;
7213;SDS011;3648;50.614;13.830;2023-04-07T15:13:03;5.17;;;4.67;;
7213;SDS011;3648;50.614;13.830;2023-04-07T15:15:30;7.20;;;4.40;;
7213;SDS011;3648;50.614;13.830;2023-04-07T15:17:59;6.13;;;5.07;;